sensor_id;sensor_type;location;lat;lon;timestamp;pressure;altitude;pressure_sealevel;temperature;humidity
73063;BME280;61230;46.328;19.972;2022-12-20T00:01:29;102565.09;;;-1.42;97.73
73063;BME280;61230;46.328;19.972;2022-12-20T00:03:59;102568.47;;;-1.34;97.11
73063;BME280;61230;46.328;19.972;2022-12-20T00:06:28;102565.87;;;-1.36;96.98
73063;BME280;61230;46.328;19.972;2022-12-20T00:08:58;102566.56;;;-1.16;96.62
73063;BME280;61230;46.328;19.972;2022-12-20T00:11:27;102558.72;;;-1.06;95.79
73063;BME280;61230;46.328;19.972;2022-12-20T00:13:56;102551.00;;;-1.08;96.22
73063;BME280;61230;46.328;19.972;2022-12-20T00:16:25;102555.16;;;-0.93;95.05
73063;BME280;61230;46.328;19.972;2022-12-20T00:18:56;102551.69;;;-0.89;94.58
73063;BME280;61230;46.328;19.972;2022-12-20T00:21:24;102549.31;;;-1.13;95.07
73063;BME280;61230;46.328;19.972;2022-12-20T00:23:52;102552.78;;;-1.16;95.42
73063;BME280;61230;46.328;19.972;2022-12-20T00:26:23;102560.34;;;-0.96;94.97
73063;BME280;61230;46.328;19.972;2022-12-20T00:28:52;102555.37;;;-1.16;95.68
73063;BME280;61230;46.328;19.972;2022-12-20T00:31:21;102544.13;;;-1.09;95.75
73063;BME280;61230;46.328;19.972;2022-12-20T00:33:51;102533.88;;;-1.17;95.48
73063;BME280;61230;46.328;19.972;2022-12-20T00:36:20;102539.84;;;-1.13;95.05
73063;BME280;61230;46.328;19.972;2022-12-20T00:38:49;102538.97;;;-1.09;95.07
73063;BME280;61230;46.328;19.972;2022-12-20T00:41:20;102532.13;;;-1.16;94.51
73063;BME280;61230;46.328;19.972;2022-12-20T00:43:48;102543.34;;;-1.17;94.81
73063;BME280;61230;46.328;19.972;2022-12-20T00:46:17;102548.50;;;-1.14;94.90
73063;BME280;61230;46.328;19.972;2022-12-20T00:48:46;102552.72;;;-1.07;94.81
73063;BME280;61230;46.328;19.972;2022-12-20T00:51:16;102558.69;;;-1.02;94.46
73063;BME280;61230;46.328;19.972;2022-12-20T00:53:43;102556.03;;;-0.96;94.19
73063;BME280;61230;46.328;19.972;2022-12-20T00:56:12;102560.44;;;-1.02;94.23
73063;BME280;61230;46.328;19.972;2022-12-20T00:58:41;102550.97;;;-1.05;94.29
73063;BME280;61230;46.328;19.972;2022-12-20T01:01:30;102560.31;;;-0.92;94.10
73063;BME280;61230;46.328;19.972;2022-12-20T01:03:59;102547.41;;;-0.93;93.83
73063;BME280;61230;46.328;19.972;2022-12-20T01:06:28;102551.69;;;-0.92;93.45
73063;BME280;61230;46.328;19.972;2022-12-20T01:08:56;102541.34;;;-0.89;93.45
73063;BME280;61230;46.328;19.972;2022-12-20T01:11:27;102549.03;;;-0.83;93.63
73063;BME280;61230;46.328;19.972;2022-12-20T01:13:57;102543.97;;;-0.95;93.63
73063;BME280;61230;46.328;19.972;2022-12-20T01:16:26;102546.62;;;-1.00;94.25
73063;BME280;61230;46.328;19.972;2022-12-20T01:18:55;102557.84;;;-1.02;93.91
73063;BME280;61230;46.328;19.972;2022-12-20T01:21:24;102556.06;;;-0.99;94.30
73063;BME280;61230;46.328;19.972;2022-12-20T01:23:53;102556.88;;;-0.92;93.56
73063;BME280;61230;46.328;19.972;2022-12-20T01:26:23;102552.72;;;-1.05;94.12
73063;BME280;61230;46.328;19.972;2022-12-20T01:28:55;102553.44;;;-0.93;93.87
73063;BME280;61230;46.328;19.972;2022-12-20T01:31:27;102555.13;;;-0.89;93.56
73063;BME280;61230;46.328;19.972;2022-12-20T01:33:56;102554.22;;;-0.88;93.38
73063;BME280;61230;46.328;19.972;2022-12-20T01:36:28;102547.50;;;-0.99;93.21
73063;BME280;61230;46.328;19.972;2022-12-20T01:39:02;102551.81;;;-1.03;94.09
73063;BME280;61230;46.328;19.972;2022-12-20T01:41:31;102538.03;;;-1.03;93.56
73063;BME280;61230;46.328;19.972;2022-12-20T01:44:01;102550.06;;;-0.99;94.05
73063;BME280;61230;46.328;19.972;2022-12-20T01:46:34;102542.28;;;-0.98;93.62
73063;BME280;61230;46.328;19.972;2022-12-20T01:51:52;102522.38;;;-0.85;93.19
73063;BME280;61230;46.328;19.972;2022-12-20T01:54:33;102525.78;;;-0.85;93.05
73063;BME280;61230;46.328;19.972;2022-12-20T01:57:09;102517.19;;;-0.85;92.86
73063;BME280;61230;46.328;19.972;2022-12-20T01:59:39;102508.44;;;-0.75;92.64
73063;BME280;61230;46.328;19.972;2022-12-20T02:02:10;102498.94;;;-0.73;92.21
73063;BME280;61230;46.328;19.972;2022-12-20T02:04:39;102492.88;;;-0.71;92.47
73063;BME280;61230;46.328;19.972;2022-12-20T02:07:07;102505.91;;;-0.77;92.27
73063;BME280;61230;46.328;19.972;2022-12-20T02:09:37;102505.00;;;-0.76;92.38
73063;BME280;61230;46.328;19.972;2022-12-20T02:12:15;102496.28;;;-0.67;92.11
73063;BME280;61230;46.328;19.972;2022-12-20T02:18:12;102486.78;;;-0.65;92.05
73063;BME280;61230;46.328;19.972;2022-12-20T02:21:04;102485.00;;;-0.62;91.41
73063;BME280;61230;46.328;19.972;2022-12-20T02:29:32;102474.72;;;-0.63;91.39
73063;BME280;61230;46.328;19.972;2022-12-20T02:32:24;102463.47;;;-0.61;91.62
73063;BME280;61230;46.328;19.972;2022-12-20T02:34:56;102460.03;;;-0.61;91.88
73063;BME280;61230;46.328;19.972;2022-12-20T02:37:23;102457.37;;;-0.57;91.14
73063;BME280;61230;46.328;19.972;2022-12-20T02:39:53;102456.66;;;-0.66;91.63
73063;BME280;61230;46.328;19.972;2022-12-20T02:42:22;102455.75;;;-0.65;91.50
73063;BME280;61230;46.328;19.972;2022-12-20T02:44:59;102457.41;;;-0.58;91.47
73063;BME280;61230;46.328;19.972;2022-12-20T02:48:12;102458.34;;;-0.64;91.71
73063;BME280;61230;46.328;19.972;2022-12-20T02:50:45;102460.84;;;-0.59;91.74
73063;BME280;61230;46.328;19.972;2022-12-20T02:53:13;102443.59;;;-0.54;91.38
73063;BME280;61230;46.328;19.972;2022-12-20T02:55:50;102443.63;;;-0.59;91.61
73063;BME280;61230;46.328;19.972;2022-12-20T02:58:36;102442.72;;;-0.56;91.35
73063;BME280;61230;46.328;19.972;2022-12-20T03:01:28;102447.84;;;-0.53;90.97
73063;BME280;61230;46.328;19.972;2022-12-20T03:03:58;102461.72;;;-0.59;91.34
73063;BME280;61230;46.328;19.972;2022-12-20T03:06:27;102455.69;;;-0.57;92.04
73063;BME280;61230;46.328;19.972;2022-12-20T03:08:57;102455.25;;;-0.93;92.73
73063;BME280;61230;46.328;19.972;2022-12-20T03:11:25;102440.19;;;-0.59;91.91
73063;BME280;61230;46.328;19.972;2022-12-20T03:13:53;102447.37;;;-0.82;91.96
73063;BME280;61230;46.328;19.972;2022-12-20T03:16:20;102437.66;;;-0.65;91.97
73063;BME280;61230;46.328;19.972;2022-12-20T03:18:48;102419.69;;;-0.73;91.49
73063;BME280;61230;46.328;19.972;2022-12-20T03:21:16;102429.75;;;-0.53;90.70
73063;BME280;61230;46.328;19.972;2022-12-20T03:23:43;102428.06;;;-0.54;90.86
73063;BME280;61230;46.328;19.972;2022-12-20T03:26:11;102420.31;;;-0.55;91.03
73063;BME280;61230;46.328;19.972;2022-12-20T03:28:39;102422.81;;;-0.49;90.35
73063;BME280;61230;46.328;19.972;2022-12-20T03:31:07;102423.72;;;-0.53;90.57
73063;BME280;61230;46.328;19.972;2022-12-20T03:33:37;102422.03;;;-0.54;90.90
73063;BME280;61230;46.328;19.972;2022-12-20T03:36:05;102408.16;;;-0.50;91.27
73063;BME280;61230;46.328;19.972;2022-12-20T03:38:33;102405.66;;;-0.55;91.11
73063;BME280;61230;46.328;19.972;2022-12-20T03:41:02;102415.97;;;-0.53;91.10
73063;BME280;61230;46.328;19.972;2022-12-20T03:43:30;102410.91;;;-0.61;91.61
73063;BME280;61230;46.328;19.972;2022-12-20T03:45:58;102396.94;;;-0.46;90.77
73063;BME280;61230;46.328;19.972;2022-12-20T03:48:27;102398.56;;;-0.42;90.51
73063;BME280;61230;46.328;19.972;2022-12-20T03:50:55;102399.50;;;-0.46;90.66
73063;BME280;61230;46.328;19.972;2022-12-20T03:53:22;102397.75;;;-0.43;89.99
73063;BME280;61230;46.328;19.972;2022-12-20T03:55:50;102399.44;;;-0.40;89.87
73063;BME280;61230;46.328;19.972;2022-12-20T03:58:18;102390.72;;;-0.35;89.70
73063;BME280;61230;46.328;19.972;2022-12-20T04:00:45;102389.72;;;-0.26;89.06
73063;BME280;61230;46.328;19.972;2022-12-20T04:03:15;102388.81;;;-0.25;89.22
73063;BME280;61230;46.328;19.972;2022-12-20T04:05:43;102381.47;;;-0.49;89.86
73063;BME280;61230;46.328;19.972;2022-12-20T04:08:11;102394.03;;;-0.28;89.58
73063;BME280;61230;46.328;19.972;2022-12-20T04:10:39;102395.00;;;-0.34;89.37
73063;BME280;61230;46.328;19.972;2022-12-20T04:16:12;102399.22;;;-0.27;89.07
73063;BME280;61230;46.328;19.972;2022-12-20T04:18:40;102393.94;;;-0.21;88.74
73063;BME280;61230;46.328;19.972;2022-12-20T04:21:10;102395.63;;;-0.18;88.32
73063;BME280;61230;46.328;19.972;2022-12-20T04:23:41;102389.59;;;-0.19;88.22
73063;BME280;61230;46.328;19.972;2022-12-20T04:26:09;102398.06;;;-0.09;87.95
73063;BME280;61230;46.328;19.972;2022-12-20T04:28:37;102397.22;;;-0.10;87.93
73063;BME280;61230;46.328;19.972;2022-12-20T04:31:08;102394.47;;;-0.01;87.77
73063;BME280;61230;46.328;19.972;2022-12-20T04:33:37;102401.41;;;-0.03;87.41
73063;BME280;61230;46.328;19.972;2022-12-20T04:36:05;102396.25;;;-0.04;87.76
73063;BME280;61230;46.328;19.972;2022-12-20T04:38:34;102385.03;;;-0.03;87.58
73063;BME280;61230;46.328;19.972;2022-12-20T04:41:01;102400.44;;;0.05;87.00
73063;BME280;61230;46.328;19.972;2022-12-20T04:43:30;102402.09;;;0.07;87.07
73063;BME280;61230;46.328;19.972;2022-12-20T04:45:58;102400.38;;;0.06;86.94
73063;BME280;61230;46.328;19.972;2022-12-20T04:48:27;102404.69;;;0.07;87.00
73063;BME280;61230;46.328;19.972;2022-12-20T04:51:16;102396.94;;;0.07;87.09
73063;BME280;61230;46.328;19.972;2022-12-20T04:53:44;102391.84;;;0.03;87.17
73063;BME280;61230;46.328;19.972;2022-12-20T04:56:24;102389.13;;;0.09;86.76
73063;BME280;61230;46.328;19.972;2022-12-20T04:58:55;102390.03;;;0.06;86.89
73063;BME280;61230;46.328;19.972;2022-12-20T05:01:23;102383.13;;;0.07;86.89
73063;BME280;61230;46.328;19.972;2022-12-20T05:03:51;102384.88;;;0.06;86.79
73063;BME280;61230;46.328;19.972;2022-12-20T05:06:19;102383.94;;;0.10;86.53
73063;BME280;61230;46.328;19.972;2022-12-20T05:08:47;102374.50;;;0.08;86.71
73063;BME280;61230;46.328;19.972;2022-12-20T05:11:15;102367.66;;;0.05;86.61
73063;BME280;61230;46.328;19.972;2022-12-20T05:13:42;102369.37;;;0.03;86.75
73063;BME280;61230;46.328;19.972;2022-12-20T05:16:10;102368.72;;;-0.07;86.93
73063;BME280;61230;46.328;19.972;2022-12-20T05:18:38;102364.41;;;-0.06;86.94
73063;BME280;61230;46.328;19.972;2022-12-20T05:21:15;102362.72;;;-0.10;87.07
73063;BME280;61230;46.328;19.972;2022-12-20T05:24:02;102373.16;;;-0.16;87.07
73063;BME280;61230;46.328;19.972;2022-12-20T05:26:50;102356.00;;;-0.22;87.32
73063;BME280;61230;46.328;19.972;2022-12-20T05:29:17;102362.06;;;-0.23;87.34
73063;BME280;61230;46.328;19.972;2022-12-20T05:31:45;102357.00;;;-0.30;87.43
73063;BME280;61230;46.328;19.972;2022-12-20T05:34:14;102355.47;;;-0.40;88.00
73063;BME280;61230;46.328;19.972;2022-12-20T05:36:45;102350.31;;;-0.42;88.10
73063;BME280;61230;46.328;19.972;2022-12-20T05:39:13;102358.09;;;-0.45;88.18
73063;BME280;61230;46.328;19.972;2022-12-20T05:41:41;102366.03;;;-0.54;88.18
73063;BME280;61230;46.328;19.972;2022-12-20T05:44:09;102371.12;;;-0.51;88.23
73063;BME280;61230;46.328;19.972;2022-12-20T05:46:37;102365.16;;;-0.54;88.29
73063;BME280;61230;46.328;19.972;2022-12-20T05:49:06;102360.84;;;-0.54;88.34
73063;BME280;61230;46.328;19.972;2022-12-20T05:51:33;102356.50;;;-0.53;88.32
73063;BME280;61230;46.328;19.972;2022-12-20T05:54:01;102367.72;;;-0.51;88.25
73063;BME280;61230;46.328;19.972;2022-12-20T05:56:31;102364.34;;;-0.58;88.33
73063;BME280;61230;46.328;19.972;2022-12-20T05:58:59;102358.44;;;-0.66;88.66
73063;BME280;61230;46.328;19.972;2022-12-20T06:01:26;102354.91;;;-0.62;88.48
73063;BME280;61230;46.328;19.972;2022-12-20T06:03:55;102349.00;;;-0.69;88.54
73063;BME280;61230;46.328;19.972;2022-12-20T06:06:23;102340.41;;;-0.69;88.88
73063;BME280;61230;46.328;19.972;2022-12-20T06:08:51;102346.38;;;-0.66;88.74
73063;BME280;61230;46.328;19.972;2022-12-20T06:11:19;102347.31;;;-0.73;88.93
73063;BME280;61230;46.328;19.972;2022-12-20T06:13:57;102343.91;;;-0.75;89.19
73063;BME280;61230;46.328;19.972;2022-12-20T06:16:26;102340.44;;;-0.72;89.18
73063;BME280;61230;46.328;19.972;2022-12-20T06:18:54;102344.75;;;-0.73;89.23
73063;BME280;61230;46.328;19.972;2022-12-20T06:21:23;102347.38;;;-0.74;89.02
73063;BME280;61230;46.328;19.972;2022-12-20T06:23:52;102351.69;;;-0.75;89.39
73063;BME280;61230;46.328;19.972;2022-12-20T06:26:20;102353.56;;;-0.86;90.10
73063;BME280;61230;46.328;19.972;2022-12-20T06:28:49;102358.66;;;-0.81;89.67
73063;BME280;61230;46.328;19.972;2022-12-20T06:31:24;102374.22;;;-0.87;89.99
73063;BME280;61230;46.328;19.972;2022-12-20T06:33:52;102378.56;;;-0.91;90.10
73063;BME280;61230;46.328;19.972;2022-12-20T06:36:20;102387.25;;;-0.96;90.75
73063;BME280;61230;46.328;19.972;2022-12-20T06:38:48;102396.66;;;-0.91;90.56
73063;BME280;61230;46.328;19.972;2022-12-20T06:41:15;102409.78;;;-1.07;91.16
73063;BME280;61230;46.328;19.972;2022-12-20T06:43:43;102407.53;;;-1.36;92.20
73063;BME280;61230;46.328;19.972;2022-12-20T06:46:11;102412.50;;;-1.18;92.19
73063;BME280;61230;46.328;19.972;2022-12-20T06:48:39;102408.16;;;-1.16;91.74
73063;BME280;61230;46.328;19.972;2022-12-20T06:51:07;102416.69;;;-1.06;91.59
73063;BME280;61230;46.328;19.972;2022-12-20T06:53:35;102417.69;;;-1.20;92.18
73063;BME280;61230;46.328;19.972;2022-12-20T06:56:04;102420.00;;;-0.97;91.68
73063;BME280;61230;46.328;19.972;2022-12-20T06:58:32;102413.78;;;-0.81;91.06
73063;BME280;61230;46.328;19.972;2022-12-20T07:01:00;102405.16;;;-0.80;90.77
73063;BME280;61230;46.328;19.972;2022-12-20T07:03:29;102414.56;;;-0.76;90.59
73063;BME280;61230;46.328;19.972;2022-12-20T07:05:56;102409.47;;;-0.82;90.66
73063;BME280;61230;46.328;19.972;2022-12-20T07:08:24;102410.66;;;-1.05;91.61
73063;BME280;61230;46.328;19.972;2022-12-20T07:10:52;102408.69;;;-0.87;91.16
73063;BME280;61230;46.328;19.972;2022-12-20T07:13:23;102404.25;;;-0.79;91.10
73063;BME280;61230;46.328;19.972;2022-12-20T07:15:57;102394.59;;;-0.63;90.83
73063;BME280;61230;46.328;19.972;2022-12-20T07:18:25;102394.47;;;-0.55;89.43
73063;BME280;61230;46.328;19.972;2022-12-20T07:20:53;102397.56;;;-0.92;90.84
73063;BME280;61230;46.328;19.972;2022-12-20T07:23:21;102391.09;;;-0.61;89.91
73063;BME280;61230;46.328;19.972;2022-12-20T07:25:56;102389.34;;;-0.59;89.35
73063;BME280;61230;46.328;19.972;2022-12-20T07:28:25;102372.09;;;-0.60;90.08
73063;BME280;61230;46.328;19.972;2022-12-20T07:30:53;102364.12;;;-0.44;89.11
73063;BME280;61230;46.328;19.972;2022-12-20T07:33:21;102354.53;;;-0.36;88.78
73063;BME280;61230;46.328;19.972;2022-12-20T07:35:49;102350.91;;;-0.25;88.29
73063;BME280;61230;46.328;19.972;2022-12-20T07:38:21;102352.47;;;-0.15;87.92
73063;BME280;61230;46.328;19.972;2022-12-20T07:40:48;102346.34;;;-0.09;87.30
73063;BME280;61230;46.328;19.972;2022-12-20T07:43:16;102336.75;;;-0.04;87.11
73063;BME280;61230;46.328;19.972;2022-12-20T07:45:44;102320.38;;;-0.03;86.89
73063;BME280;61230;46.328;19.972;2022-12-20T07:48:12;102315.00;;;0.06;86.37
73063;BME280;61230;46.328;19.972;2022-12-20T07:50:46;102306.16;;;0.19;86.28
73063;BME280;61230;46.328;19.972;2022-12-20T07:53:14;102305.28;;;0.19;85.89
73063;BME280;61230;46.328;19.972;2022-12-20T07:55:41;102305.22;;;0.22;85.54
73063;BME280;61230;46.328;19.972;2022-12-20T07:58:09;102297.19;;;0.37;85.18
73063;BME280;61230;46.328;19.972;2022-12-20T08:00:38;102302.44;;;0.32;85.14
73063;BME280;61230;46.328;19.972;2022-12-20T08:03:13;102296.38;;;0.33;85.06
73063;BME280;61230;46.328;19.972;2022-12-20T08:05:45;102294.50;;;0.40;84.87
73063;BME280;61230;46.328;19.972;2022-12-20T08:08:14;102295.19;;;0.51;84.12
73063;BME280;61230;46.328;19.972;2022-12-20T08:10:43;102290.75;;;0.54;84.09
73063;BME280;61230;46.328;19.972;2022-12-20T08:13:14;102296.69;;;0.61;83.93
73063;BME280;61230;46.328;19.972;2022-12-20T08:15:42;102293.09;;;0.67;83.90
73063;BME280;61230;46.328;19.972;2022-12-20T08:18:09;102286.09;;;0.72;83.25
73063;BME280;61230;46.328;19.972;2022-12-20T08:20:37;102280.81;;;0.76;82.97
73063;BME280;61230;46.328;19.972;2022-12-20T08:23:05;102282.31;;;0.86;82.62
73063;BME280;61230;46.328;19.972;2022-12-20T08:25:33;102278.72;;;0.93;82.24
73063;BME280;61230;46.328;19.972;2022-12-20T08:28:08;102275.16;;;0.97;81.98
73063;BME280;61230;46.328;19.972;2022-12-20T08:30:37;102266.44;;;1.01;81.85
73063;BME280;61230;46.328;19.972;2022-12-20T08:33:06;102278.66;;;0.95;81.70
73063;BME280;61230;46.328;19.972;2022-12-20T08:35:37;102280.41;;;0.94;80.76
73063;BME280;61230;46.328;19.972;2022-12-20T08:38:05;102282.00;;;1.00;81.33
73063;BME280;61230;46.328;19.972;2022-12-20T08:40:35;102279.53;;;0.94;81.45
73063;BME280;61230;46.328;19.972;2022-12-20T08:43:03;102293.16;;;1.03;80.89
73063;BME280;61230;46.328;19.972;2022-12-20T08:45:36;102291.31;;;1.08;80.61
73063;BME280;61230;46.328;19.972;2022-12-20T08:48:04;102291.44;;;1.02;80.79
73063;BME280;61230;46.328;19.972;2022-12-20T08:50:31;102285.19;;;1.11;80.54
73063;BME280;61230;46.328;19.972;2022-12-20T08:52:59;102291.97;;;1.18;79.66
73063;BME280;61230;46.328;19.972;2022-12-20T08:55:27;102296.81;;;1.32;79.42
73063;BME280;61230;46.328;19.972;2022-12-20T08:57:55;102304.59;;;1.32;78.35
73063;BME280;61230;46.328;19.972;2022-12-20T09:00:23;102299.41;;;1.33;78.51
73063;BME280;61230;46.328;19.972;2022-12-20T09:02:52;102295.88;;;1.36;78.42
73063;BME280;61230;46.328;19.972;2022-12-20T09:05:21;102294.03;;;1.41;78.67
73063;BME280;61230;46.328;19.972;2022-12-20T09:07:48;102283.53;;;1.45;78.53
73063;BME280;61230;46.328;19.972;2022-12-20T09:10:16;102286.97;;;1.47;78.43
73063;BME280;61230;46.328;19.972;2022-12-20T09:12:44;102294.63;;;1.52;78.13
73063;BME280;61230;46.328;19.972;2022-12-20T09:15:11;102292.75;;;1.57;77.46
73063;BME280;61230;46.328;19.972;2022-12-20T09:17:39;102285.81;;;1.59;77.39
73063;BME280;61230;46.328;19.972;2022-12-20T09:20:07;102274.44;;;1.63;76.99
73063;BME280;61230;46.328;19.972;2022-12-20T09:22:34;102270.13;;;1.63;77.17
73063;BME280;61230;46.328;19.972;2022-12-20T09:25:02;102271.84;;;1.64;77.25
73063;BME280;61230;46.328;19.972;2022-12-20T09:27:30;102267.37;;;1.69;77.45
73063;BME280;61230;46.328;19.972;2022-12-20T09:29:57;102257.94;;;1.67;76.55
73063;BME280;61230;46.328;19.972;2022-12-20T09:32:25;102249.22;;;1.68;76.91
73063;BME280;61230;46.328;19.972;2022-12-20T09:34:53;102248.38;;;1.67;76.37
73063;BME280;61230;46.328;19.972;2022-12-20T09:37:20;102243.28;;;1.64;76.30
73063;BME280;61230;46.328;19.972;2022-12-20T09:39:48;102250.06;;;1.70;76.68
73063;BME280;61230;46.328;19.972;2022-12-20T09:42:21;102260.25;;;1.78;76.52
73063;BME280;61230;46.328;19.972;2022-12-20T09:44:51;102251.50;;;1.80;76.80
73063;BME280;61230;46.328;19.972;2022-12-20T09:47:22;102251.28;;;1.89;76.89
73063;BME280;61230;46.328;19.972;2022-12-20T09:49:55;102255.47;;;1.93;76.87
73063;BME280;61230;46.328;19.972;2022-12-20T10:00:25;102248.22;;;2.06;75.69
73063;BME280;61230;46.328;19.972;2022-12-20T10:02:53;102240.22;;;2.13;75.57
73063;BME280;61230;46.328;19.972;2022-12-20T10:16:44;102194.03;;;2.24;74.38
73063;BME280;61230;46.328;19.972;2022-12-20T10:22:20;102192.72;;;2.39;74.30
73063;BME280;61230;46.328;19.972;2022-12-20T10:25:15;102192.28;;;2.54;73.69
73063;BME280;61230;46.328;19.972;2022-12-20T10:27:45;102169.69;;;2.56;73.48
73063;BME280;61230;46.328;19.972;2022-12-20T10:30:16;102160.84;;;2.63;73.25
73063;BME280;61230;46.328;19.972;2022-12-20T10:32:47;102153.84;;;2.65;73.20
73063;BME280;61230;46.328;19.972;2022-12-20T10:35:28;102149.25;;;2.73;72.89
73063;BME280;61230;46.328;19.972;2022-12-20T10:38:05;102151.75;;;2.76;72.53
73063;BME280;61230;46.328;19.972;2022-12-20T10:40:38;102160.22;;;2.81;73.02
73063;BME280;61230;46.328;19.972;2022-12-20T10:43:27;102162.22;;;2.73;72.99
73063;BME280;61230;46.328;19.972;2022-12-20T10:46:05;102166.84;;;2.92;72.35
73063;BME280;61230;46.328;19.972;2022-12-20T10:48:37;102166.59;;;2.99;72.04
73063;BME280;61230;46.328;19.972;2022-12-20T10:54:02;102159.28;;;3.10;71.39
73063;BME280;61230;46.328;19.972;2022-12-20T10:56:55;102157.56;;;3.11;70.41
73063;BME280;61230;46.328;19.972;2022-12-20T10:59:31;102166.72;;;3.21;70.18
73063;BME280;61230;46.328;19.972;2022-12-20T11:02:02;102146.44;;;3.32;70.71
73063;BME280;61230;46.328;19.972;2022-12-20T11:07:31;102131.09;;;3.49;69.96
73063;BME280;61230;46.328;19.972;2022-12-20T11:10:17;102128.25;;;3.55;69.75
73063;BME280;61230;46.328;19.972;2022-12-20T11:12:59;102104.91;;;3.54;69.74
73063;BME280;61230;46.328;19.972;2022-12-20T11:15:30;102087.53;;;3.29;70.33
73063;BME280;61230;46.328;19.972;2022-12-20T11:18:07;102097.69;;;3.37;70.06
73063;BME280;61230;46.328;19.972;2022-12-20T11:20:49;102098.66;;;3.34;70.51
73063;BME280;61230;46.328;19.972;2022-12-20T11:26:17;102095.09;;;3.37;70.40
73063;BME280;61230;46.328;19.972;2022-12-20T11:29:02;102109.16;;;3.31;68.75
73063;BME280;61230;46.328;19.972;2022-12-20T11:37:23;102102.59;;;3.46;70.23
73063;BME280;61230;46.328;19.972;2022-12-20T11:40:04;102102.34;;;3.52;70.36
73063;BME280;61230;46.328;19.972;2022-12-20T11:45:24;102093.34;;;3.61;70.65
73063;BME280;61230;46.328;19.972;2022-12-20T11:51:02;102080.19;;;3.65;70.12
73063;BME280;61230;46.328;19.972;2022-12-20T11:53:42;102075.09;;;3.62;70.05
73063;BME280;61230;46.328;19.972;2022-12-20T11:56:37;102079.12;;;3.71;69.74
73063;BME280;61230;46.328;19.972;2022-12-20T11:59:20;102074.13;;;3.65;70.31
73063;BME280;61230;46.328;19.972;2022-12-20T12:01:54;102071.09;;;3.54;70.41
73063;BME280;61230;46.328;19.972;2022-12-20T12:04:25;102072.28;;;3.68;70.01
73063;BME280;61230;46.328;19.972;2022-12-20T12:06:58;102062.19;;;3.59;69.80
73063;BME280;61230;46.328;19.972;2022-12-20T12:09:32;102056.94;;;3.61;69.48
73063;BME280;61230;46.328;19.972;2022-12-20T12:15:00;102053.13;;;3.69;68.97
73063;BME280;61230;46.328;19.972;2022-12-20T12:17:40;102058.22;;;3.72;69.24
73063;BME280;61230;46.328;19.972;2022-12-20T12:23:05;102047.25;;;3.64;68.58
73063;BME280;61230;46.328;19.972;2022-12-20T12:25:38;102035.53;;;3.53;68.44
73063;BME280;61230;46.328;19.972;2022-12-20T12:28:11;102030.63;;;3.45;68.99
73063;BME280;61230;46.328;19.972;2022-12-20T12:30:45;102028.22;;;3.40;68.89
73063;BME280;61230;46.328;19.972;2022-12-20T12:33:27;102020.66;;;3.33;69.17
73063;BME280;61230;46.328;19.972;2022-12-20T12:44:58;102012.25;;;3.49;66.63
73063;BME280;61230;46.328;19.972;2022-12-20T12:50:36;102009.75;;;3.46;67.58
73063;BME280;61230;46.328;19.972;2022-12-20T12:55:38;102017.91;;;3.37;67.45
73063;BME280;61230;46.328;19.972;2022-12-20T13:00:52;101999.41;;;3.22;67.80
73063;BME280;61230;46.328;19.972;2022-12-20T13:11:38;101982.47;;;3.10;68.51
73063;BME280;61230;46.328;19.972;2022-12-20T13:16:44;101986.94;;;3.07;68.99
73063;BME280;61230;46.328;19.972;2022-12-20T13:19:36;102000.00;;;3.05;69.23
73063;BME280;61230;46.328;19.972;2022-12-20T13:27:36;101976.16;;;2.92;69.68
73063;BME280;61230;46.328;19.972;2022-12-20T13:32:56;101979.00;;;2.86;69.42
73063;BME280;61230;46.328;19.972;2022-12-20T13:38:04;101984.56;;;3.01;69.31
73063;BME280;61230;46.328;19.972;2022-12-20T13:40:44;101984.69;;;2.98;69.40
73063;BME280;61230;46.328;19.972;2022-12-20T13:46:13;101989.50;;;3.08;69.34
73063;BME280;61230;46.328;19.972;2022-12-20T13:51:22;101985.75;;;3.15;69.42
73063;BME280;61230;46.328;19.972;2022-12-20T13:54:01;101988.34;;;3.15;69.26
73063;BME280;61230;46.328;19.972;2022-12-20T13:56:45;101992.87;;;3.10;69.67
73063;BME280;61230;46.328;19.972;2022-12-20T13:59:23;101996.34;;;3.11;70.14
73063;BME280;61230;46.328;19.972;2022-12-20T14:01:55;101999.78;;;3.11;69.96
73063;BME280;61230;46.328;19.972;2022-12-20T14:04:25;101999.16;;;3.05;70.44
73063;BME280;61230;46.328;19.972;2022-12-20T14:06:59;101991.44;;;3.02;70.80
73063;BME280;61230;46.328;19.972;2022-12-20T14:09:36;101993.19;;;3.01;70.75
73063;BME280;61230;46.328;19.972;2022-12-20T14:12:15;101984.56;;;3.01;70.84
73063;BME280;61230;46.328;19.972;2022-12-20T14:14:54;101980.28;;;3.00;70.93
73063;BME280;61230;46.328;19.972;2022-12-20T14:17:33;101980.38;;;2.97;71.36
73063;BME280;61230;46.328;19.972;2022-12-20T14:25:35;101979.81;;;2.88;71.71
73063;BME280;61230;46.328;19.972;2022-12-20T14:28:04;101980.88;;;2.83;72.10
73063;BME280;61230;46.328;19.972;2022-12-20T14:30:40;101974.88;;;2.81;72.24
73063;BME280;61230;46.328;19.972;2022-12-20T14:33:20;101979.56;;;2.70;72.58
73063;BME280;61230;46.328;19.972;2022-12-20T14:35:51;101990.22;;;2.62;73.22
73063;BME280;61230;46.328;19.972;2022-12-20T14:38:28;101992.16;;;2.57;73.29
73063;BME280;61230;46.328;19.972;2022-12-20T14:40:57;101982.03;;;2.50;73.59
73063;BME280;61230;46.328;19.972;2022-12-20T14:43:32;101974.44;;;2.44;74.06
73063;BME280;61230;46.328;19.972;2022-12-20T14:46:14;101953.88;;;2.36;74.33
73063;BME280;61230;46.328;19.972;2022-12-20T14:48:43;101952.31;;;2.32;74.70
73063;BME280;61230;46.328;19.972;2022-12-20T14:51:21;101961.28;;;2.22;75.37
73063;BME280;61230;46.328;19.972;2022-12-20T14:53:50;101974.00;;;2.03;76.00
73063;BME280;61230;46.328;19.972;2022-12-20T14:56:19;101973.28;;;1.70;77.42
73063;BME280;61230;46.328;19.972;2022-12-20T14:59:12;101965.06;;;1.56;78.25
73063;BME280;61230;46.328;19.972;2022-12-20T15:01:41;101961.16;;;1.72;77.59